createdAt,value
2023-08-16T05:52:14.960Z,25.51
2023-08-16T05:57:17.657Z,25.73
2023-08-16T06:02:24.462Z,25.88
2023-08-16T06:07:27.927Z,26.01
2023-08-16T06:12:30.502Z,26.14
2023-08-16T06:17:32.993Z,26.31
2023-08-16T06:22:38.617Z,26.40
2023-08-16T06:27:41.360Z,26.47
2023-08-16T06:32:43.735Z,26.58
2023-08-16T06:37:47.470Z,26.58
2023-08-16T06:42:51.299Z,26.71
2023-08-16T06:47:55.130Z,26.84
2023-08-16T06:52:58.062Z,26.92
2023-08-16T06:58:03.755Z,26.97
2023-08-16T07:03:06.695Z,26.99
2023-08-16T07:08:10.375Z,27.15
2023-08-16T07:13:13.282Z,27.24
2023-08-16T07:18:16.113Z,27.24
2023-08-16T07:23:18.574Z,27.25
2023-08-16T07:28:25.578Z,27.28
2023-08-16T07:33:33.039Z,27.35
2023-08-16T07:38:36.970Z,27.39
2023-08-16T07:43:39.543Z,27.44
2023-08-16T08:02:03.506Z,27.55
2023-08-16T08:07:06.633Z,27.64
2023-08-16T08:12:09.331Z,27.76
2023-08-16T08:17:11.774Z,27.90
2023-08-16T08:22:14.773Z,27.95
2023-08-16T08:27:17.482Z,27.92
2023-08-16T08:32:20.143Z,28.08
2023-08-16T08:37:22.471Z,28.22
2023-08-16T08:42:28.479Z,28.35
2023-08-16T08:47:32.557Z,28.51
2023-08-16T08:52:36.605Z,28.68
2023-08-16T08:57:39.855Z,28.79
2023-08-16T09:02:44.649Z,28.83
2023-08-16T09:07:47.894Z,28.81
2023-08-16T09:12:51.438Z,28.93
2023-08-16T09:18:07.041Z,29.12
2023-08-16T09:23:19.652Z,29.14
2023-08-16T09:28:22.373Z,29.22
2023-08-16T09:33:25.505Z,29.38
2023-08-16T09:43:34.450Z,29.66
2023-08-16T09:49:10.672Z,29.75
2023-08-16T09:54:02.985Z,29.87
2023-08-16T09:59:36.830Z,29.95
2023-08-16T10:09:38.192Z,30.27
2023-08-16T10:14:40.767Z,30.44
2023-08-16T10:19:46.732Z,30.58
2023-08-16T10:24:51.677Z,31.15
2023-08-16T10:30:08.441Z,31.22
2023-08-16T10:35:13.909Z,30.94
2023-08-16T10:40:26.075Z,31.25
2023-08-16T10:50:42.949Z,30.99
2023-08-16T10:55:58.330Z,31.36
2023-08-16T11:01:05.544Z,32.14
2023-08-16T11:06:13.439Z,33.89
2023-08-16T11:11:17.160Z,34.61
2023-08-16T11:16:20.206Z,35.11
2023-08-16T11:21:23.950Z,33.79
2023-08-16T11:26:26.472Z,34.96
2023-08-16T11:31:29.369Z,33.76
2023-08-16T11:36:31.976Z,35.79
2023-08-16T11:41:34.708Z,36.97
2023-08-16T11:46:48.836Z,36.71
